sensor_id;sensor_type;location;lat;lon;timestamp;P1;durP1;ratioP1;P2;durP2;ratioP2
2930;SDS011;1475;51.454;7.150;2022-09-09T00:01:08;2.60;;;1.90;;
2930;SDS011;1475;51.454;7.150;2022-09-09T00:03:47;2.58;;;1.40;;
2930;SDS011;1475;51.454;7.150;2022-09-09T00:06:21;6.30;;;2.05;;
2930;SDS011;1475;51.454;7.150;2022-09-09T00:08:54;2.35;;;1.70;;
2930;SDS011;1475;51.454;7.150;2022-09-09T00:11:28;3.65;;;2.00;;
2930;SDS011;1475;51.454;7.150;2022-09-09T00:14:02;2.75;;;1.45;;
2930;SDS011;1475;51.454;7.150;2022-09-09T00:16:35;3.58;;;1.90;;
2930;SDS011;1475;51.454;7.150;2022-09-09T00:19:07;3.25;;;1.80;;
2930;SDS011;1475;51.454;7.150;2022-09-09T00:21:47;2.63;;;1.40;;
2930;SDS011;1475;51.454;7.150;2022-09-09T00:24:24;2.45;;;1.77;;
2930;SDS011;1475;51.454;7.150;2022-09-09T00:26:56;2.90;;;1.70;;
2930;SDS011;1475;51.454;7.150;2022-09-09T00:29:32;3.05;;;1.75;;
2930;SDS011;1475;51.454;7.150;2022-09-09T00:32:09;3.35;;;2.13;;
2930;SDS011;1475;51.454;7.150;2022-09-09T00:34:39;4.47;;;1.95;;
2930;SDS011;1475;51.454;7.150;2022-09-09T00:37:09;3.45;;;1.80;;
2930;SDS011;1475;51.454;7.150;2022-09-09T00:39:37;3.83;;;1.95;;
2930;SDS011;1475;51.454;7.150;2022-09-09T00:42:11;4.18;;;1.75;;
2930;SDS011;1475;51.454;7.150;2022-09-09T00:44:45;4.75;;;2.20;;
2930;SDS011;1475;51.454;7.150;2022-09-09T00:47:29;3.80;;;1.85;;
2930;SDS011;1475;51.454;7.150;2022-09-09T00:50:10;4.00;;;1.83;;
2930;SDS011;1475;51.454;7.150;2022-09-09T00:52:54;3.40;;;1.95;;
2930;SDS011;1475;51.454;7.150;2022-09-09T00:55:31;2.80;;;2.00;;
2930;SDS011;1475;51.454;7.150;2022-09-09T00:58:06;2.78;;;1.70;;
2930;SDS011;1475;51.454;7.150;2022-09-09T01:00:35;3.25;;;1.98;;
2930;SDS011;1475;51.454;7.150;2022-09-09T01:03:17;9.13;;;3.50;;
2930;SDS011;1475;51.454;7.150;2022-09-09T01:06:01;4.35;;;1.98;;
2930;SDS011;1475;51.454;7.150;2022-09-09T01:08:41;4.15;;;2.03;;
2930;SDS011;1475;51.454;7.150;2022-09-09T01:11:20;5.20;;;2.60;;
2930;SDS011;1475;51.454;7.150;2022-09-09T01:13:49;3.33;;;2.35;;
2930;SDS011;1475;51.454;7.150;2022-09-09T01:16:23;3.08;;;2.58;;
2930;SDS011;1475;51.454;7.150;2022-09-09T01:18:53;2.78;;;1.95;;
2930;SDS011;1475;51.454;7.150;2022-09-09T01:21:22;5.03;;;3.10;;
2930;SDS011;1475;51.454;7.150;2022-09-09T01:24:04;4.63;;;2.30;;
2930;SDS011;1475;51.454;7.150;2022-09-09T01:26:50;3.85;;;2.88;;
2930;SDS011;1475;51.454;7.150;2022-09-09T01:29:18;4.63;;;2.85;;
2930;SDS011;1475;51.454;7.150;2022-09-09T01:31:52;5.32;;;3.40;;
2930;SDS011;1475;51.454;7.150;2022-09-09T01:34:21;7.68;;;3.80;;
2930;SDS011;1475;51.454;7.150;2022-09-09T01:36:49;5.85;;;3.90;;
2930;SDS011;1475;51.454;7.150;2022-09-09T01:39:22;3.80;;;3.40;;
2930;SDS011;1475;51.454;7.150;2022-09-09T01:41:51;5.80;;;4.55;;
2930;SDS011;1475;51.454;7.150;2022-09-09T01:44:18;7.15;;;4.55;;
2930;SDS011;1475;51.454;7.150;2022-09-09T01:46:46;7.03;;;5.15;;
2930;SDS011;1475;51.454;7.150;2022-09-09T01:49:13;5.45;;;4.53;;
2930;SDS011;1475;51.454;7.150;2022-09-09T01:51:40;5.93;;;5.13;;
2930;SDS011;1475;51.454;7.150;2022-09-09T01:54:08;11.43;;;5.13;;
2930;SDS011;1475;51.454;7.150;2022-09-09T01:56:37;7.15;;;5.22;;
2930;SDS011;1475;51.454;7.150;2022-09-09T01:59:18;6.32;;;5.00;;
2930;SDS011;1475;51.454;7.150;2022-09-09T02:02:03;6.90;;;4.50;;
2930;SDS011;1475;51.454;7.150;2022-09-09T02:04:36;7.00;;;5.82;;
2930;SDS011;1475;51.454;7.150;2022-09-09T02:07:06;6.47;;;4.80;;
2930;SDS011;1475;51.454;7.150;2022-09-09T02:09:39;7.82;;;4.90;;
2930;SDS011;1475;51.454;7.150;2022-09-09T02:12:10;9.77;;;4.70;;
2930;SDS011;1475;51.454;7.150;2022-09-09T02:14:42;11.20;;;6.65;;
2930;SDS011;1475;51.454;7.150;2022-09-09T02:17:16;8.73;;;4.90;;
2930;SDS011;1475;51.454;7.150;2022-09-09T02:19:49;6.53;;;4.63;;
2930;SDS011;1475;51.454;7.150;2022-09-09T02:22:21;6.10;;;5.50;;
2930;SDS011;1475;51.454;7.150;2022-09-09T02:24:50;7.45;;;4.35;;
2930;SDS011;1475;51.454;7.150;2022-09-09T02:27:21;18.48;;;7.45;;
2930;SDS011;1475;51.454;7.150;2022-09-09T02:29:50;8.35;;;6.57;;
2930;SDS011;1475;51.454;7.150;2022-09-09T02:32:19;6.68;;;4.90;;
2930;SDS011;1475;51.454;7.150;2022-09-09T02:34:48;8.05;;;4.68;;
2930;SDS011;1475;51.454;7.150;2022-09-09T02:37:20;8.30;;;5.45;;
2930;SDS011;1475;51.454;7.150;2022-09-09T02:39:50;8.48;;;5.45;;
2930;SDS011;1475;51.454;7.150;2022-09-09T02:42:17;8.02;;;5.57;;
2930;SDS011;1475;51.454;7.150;2022-09-09T02:44:44;9.45;;;5.63;;
2930;SDS011;1475;51.454;7.150;2022-09-09T02:47:18;8.75;;;5.10;;
2930;SDS011;1475;51.454;7.150;2022-09-09T02:49:56;6.75;;;5.95;;
2930;SDS011;1475;51.454;7.150;2022-09-09T02:52:32;6.28;;;5.00;;
2930;SDS011;1475;51.454;7.150;2022-09-09T02:55:11;7.80;;;4.55;;
2930;SDS011;1475;51.454;7.150;2022-09-09T02:57:44;7.18;;;4.70;;
2930;SDS011;1475;51.454;7.150;2022-09-09T03:00:13;8.18;;;5.05;;
2930;SDS011;1475;51.454;7.150;2022-09-09T03:02:41;6.03;;;4.55;;
2930;SDS011;1475;51.454;7.150;2022-09-09T03:05:10;6.05;;;4.85;;
2930;SDS011;1475;51.454;7.150;2022-09-09T03:07:38;10.32;;;4.90;;
2930;SDS011;1475;51.454;7.150;2022-09-09T03:10:05;11.25;;;4.00;;
2930;SDS011;1475;51.454;7.150;2022-09-09T03:12:33;6.00;;;4.32;;
2930;SDS011;1475;51.454;7.150;2022-09-09T03:14:59;7.78;;;4.47;;
2930;SDS011;1475;51.454;7.150;2022-09-09T03:17:26;5.07;;;4.55;;
2930;SDS011;1475;51.454;7.150;2022-09-09T03:19:54;5.18;;;3.92;;
2930;SDS011;1475;51.454;7.150;2022-09-09T03:22:22;7.03;;;3.70;;
2930;SDS011;1475;51.454;7.150;2022-09-09T03:24:50;4.55;;;4.00;;
2930;SDS011;1475;51.454;7.150;2022-09-09T03:27:17;5.28;;;4.10;;
2930;SDS011;1475;51.454;7.150;2022-09-09T03:29:44;4.72;;;3.25;;
2930;SDS011;1475;51.454;7.150;2022-09-09T03:32:11;4.07;;;3.20;;
2930;SDS011;1475;51.454;7.150;2022-09-09T03:34:42;6.90;;;3.83;;
2930;SDS011;1475;51.454;7.150;2022-09-09T03:37:10;5.03;;;3.15;;
2930;SDS011;1475;51.454;7.150;2022-09-09T03:39:37;8.95;;;3.53;;
2930;SDS011;1475;51.454;7.150;2022-09-09T03:42:04;5.93;;;3.17;;
2930;SDS011;1475;51.454;7.150;2022-09-09T03:44:31;5.35;;;3.67;;
2930;SDS011;1475;51.454;7.150;2022-09-09T03:46:58;6.80;;;3.35;;
2930;SDS011;1475;51.454;7.150;2022-09-09T03:49:25;5.75;;;3.58;;
2930;SDS011;1475;51.454;7.150;2022-09-09T03:51:53;6.32;;;3.38;;
2930;SDS011;1475;51.454;7.150;2022-09-09T03:54:22;5.85;;;3.35;;
2930;SDS011;1475;51.454;7.150;2022-09-09T03:56:49;8.07;;;3.05;;
2930;SDS011;1475;51.454;7.150;2022-09-09T03:59:16;4.95;;;3.25;;
2930;SDS011;1475;51.454;7.150;2022-09-09T04:01:43;8.40;;;4.55;;
2930;SDS011;1475;51.454;7.150;2022-09-09T04:04:10;4.50;;;3.08;;
2930;SDS011;1475;51.454;7.150;2022-09-09T04:06:37;3.83;;;3.28;;
2930;SDS011;1475;51.454;7.150;2022-09-09T04:09:04;5.25;;;3.35;;
2930;SDS011;1475;51.454;7.150;2022-09-09T04:11:32;9.55;;;3.88;;
2930;SDS011;1475;51.454;7.150;2022-09-09T04:13:59;3.72;;;3.35;;
2930;SDS011;1475;51.454;7.150;2022-09-09T04:16:26;4.15;;;2.97;;
2930;SDS011;1475;51.454;7.150;2022-09-09T04:18:52;7.38;;;3.22;;
2930;SDS011;1475;51.454;7.150;2022-09-09T04:21:21;4.88;;;3.25;;
2930;SDS011;1475;51.454;7.150;2022-09-09T04:23:48;10.80;;;3.35;;
2930;SDS011;1475;51.454;7.150;2022-09-09T04:26:15;10.35;;;3.13;;
2930;SDS011;1475;51.454;7.150;2022-09-09T04:28:43;5.97;;;4.32;;
2930;SDS011;1475;51.454;7.150;2022-09-09T04:31:10;4.85;;;2.97;;
2930;SDS011;1475;51.454;7.150;2022-09-09T04:33:41;4.75;;;3.00;;
2930;SDS011;1475;51.454;7.150;2022-09-09T04:36:08;7.35;;;3.33;;
2930;SDS011;1475;51.454;7.150;2022-09-09T04:38:34;4.68;;;3.10;;
2930;SDS011;1475;51.454;7.150;2022-09-09T04:41:02;7.25;;;4.50;;
2930;SDS011;1475;51.454;7.150;2022-09-09T04:43:29;13.10;;;5.45;;
2930;SDS011;1475;51.454;7.150;2022-09-09T04:45:57;4.82;;;3.10;;
2930;SDS011;1475;51.454;7.150;2022-09-09T04:48:25;3.75;;;3.00;;
2930;SDS011;1475;51.454;7.150;2022-09-09T04:50:56;9.82;;;3.45;;
2930;SDS011;1475;51.454;7.150;2022-09-09T04:53:23;11.10;;;5.28;;
2930;SDS011;1475;51.454;7.150;2022-09-09T04:55:51;7.05;;;3.65;;
2930;SDS011;1475;51.454;7.150;2022-09-09T04:58:18;6.75;;;4.00;;
2930;SDS011;1475;51.454;7.150;2022-09-09T05:00:46;9.00;;;4.43;;
2930;SDS011;1475;51.454;7.150;2022-09-09T05:03:14;5.03;;;3.50;;
2930;SDS011;1475;51.454;7.150;2022-09-09T05:05:41;9.27;;;4.15;;
2930;SDS011;1475;51.454;7.150;2022-09-09T05:08:08;10.65;;;4.82;;
2930;SDS011;1475;51.454;7.150;2022-09-09T05:10:36;6.93;;;4.13;;
2930;SDS011;1475;51.454;7.150;2022-09-09T05:13:04;7.47;;;3.60;;
2930;SDS011;1475;51.454;7.150;2022-09-09T05:15:31;12.10;;;4.50;;
2930;SDS011;1475;51.454;7.150;2022-09-09T05:17:58;4.20;;;3.17;;
2930;SDS011;1475;51.454;7.150;2022-09-09T05:20:27;8.15;;;4.65;;
2930;SDS011;1475;51.454;7.150;2022-09-09T05:22:54;6.80;;;3.58;;
2930;SDS011;1475;51.454;7.150;2022-09-09T05:25:22;11.85;;;5.85;;
2930;SDS011;1475;51.454;7.150;2022-09-09T05:27:50;7.82;;;4.05;;
2930;SDS011;1475;51.454;7.150;2022-09-09T05:30:17;5.53;;;4.32;;
2930;SDS011;1475;51.454;7.150;2022-09-09T05:32:44;9.55;;;4.38;;
2930;SDS011;1475;51.454;7.150;2022-09-09T05:35:13;7.05;;;4.03;;
2930;SDS011;1475;51.454;7.150;2022-09-09T05:37:42;8.63;;;3.83;;
2930;SDS011;1475;51.454;7.150;2022-09-09T05:40:08;10.35;;;4.05;;
2930;SDS011;1475;51.454;7.150;2022-09-09T05:42:36;6.13;;;3.58;;
2930;SDS011;1475;51.454;7.150;2022-09-09T05:45:04;8.63;;;3.80;;
2930;SDS011;1475;51.454;7.150;2022-09-09T05:47:32;5.75;;;4.68;;
2930;SDS011;1475;51.454;7.150;2022-09-09T05:49:59;5.85;;;4.00;;
2930;SDS011;1475;51.454;7.150;2022-09-09T05:52:26;6.82;;;4.00;;
2930;SDS011;1475;51.454;7.150;2022-09-09T05:54:55;6.07;;;5.47;;
2930;SDS011;1475;51.454;7.150;2022-09-09T05:57:22;10.48;;;5.00;;
2930;SDS011;1475;51.454;7.150;2022-09-09T05:59:48;6.75;;;4.07;;
2930;SDS011;1475;51.454;7.150;2022-09-09T06:02:15;7.55;;;3.80;;
2930;SDS011;1475;51.454;7.150;2022-09-09T06:04:42;5.22;;;3.22;;
2930;SDS011;1475;51.454;7.150;2022-09-09T06:07:09;6.30;;;4.82;;
2930;SDS011;1475;51.454;7.150;2022-09-09T06:09:36;8.02;;;3.85;;
2930;SDS011;1475;51.454;7.150;2022-09-09T06:12:04;8.23;;;3.60;;
2930;SDS011;1475;51.454;7.150;2022-09-09T06:14:32;10.07;;;4.78;;
2930;SDS011;1475;51.454;7.150;2022-09-09T06:16:58;11.15;;;5.03;;
2930;SDS011;1475;51.454;7.150;2022-09-09T06:19:26;6.30;;;4.10;;
2930;SDS011;1475;51.454;7.150;2022-09-09T06:21:53;7.03;;;3.40;;
2930;SDS011;1475;51.454;7.150;2022-09-09T06:24:19;8.23;;;4.00;;
2930;SDS011;1475;51.454;7.150;2022-09-09T06:26:47;6.13;;;3.47;;
2930;SDS011;1475;51.454;7.150;2022-09-09T06:29:15;5.30;;;2.42;;
2930;SDS011;1475;51.454;7.150;2022-09-09T06:31:42;6.45;;;3.08;;
2930;SDS011;1475;51.454;7.150;2022-09-09T06:34:09;8.07;;;3.75;;
2930;SDS011;1475;51.454;7.150;2022-09-09T06:36:37;7.13;;;3.25;;
2930;SDS011;1475;51.454;7.150;2022-09-09T06:39:04;6.05;;;3.10;;
2930;SDS011;1475;51.454;7.150;2022-09-09T06:41:32;4.22;;;2.80;;
2930;SDS011;1475;51.454;7.150;2022-09-09T06:43:59;10.05;;;3.58;;
2930;SDS011;1475;51.454;7.150;2022-09-09T06:46:28;7.45;;;2.35;;
2930;SDS011;1475;51.454;7.150;2022-09-09T06:48:58;7.93;;;2.33;;
2930;SDS011;1475;51.454;7.150;2022-09-09T06:51:26;6.65;;;2.80;;
2930;SDS011;1475;51.454;7.150;2022-09-09T06:53:54;9.10;;;3.35;;
2930;SDS011;1475;51.454;7.150;2022-09-09T06:56:23;3.33;;;1.98;;
2930;SDS011;1475;51.454;7.150;2022-09-09T06:58:53;9.20;;;3.25;;
2930;SDS011;1475;51.454;7.150;2022-09-09T07:01:21;3.63;;;2.45;;
2930;SDS011;1475;51.454;7.150;2022-09-09T07:03:51;5.35;;;2.60;;
2930;SDS011;1475;51.454;7.150;2022-09-09T07:06:20;3.92;;;2.80;;
2930;SDS011;1475;51.454;7.150;2022-09-09T07:08:49;4.53;;;2.35;;
2930;SDS011;1475;51.454;7.150;2022-09-09T07:11:16;6.63;;;2.65;;
2930;SDS011;1475;51.454;7.150;2022-09-09T07:13:45;4.97;;;3.22;;
2930;SDS011;1475;51.454;7.150;2022-09-09T07:16:13;7.63;;;2.78;;
2930;SDS011;1475;51.454;7.150;2022-09-09T07:18:42;4.07;;;2.03;;
2930;SDS011;1475;51.454;7.150;2022-09-09T07:21:10;4.80;;;1.95;;
2930;SDS011;1475;51.454;7.150;2022-09-09T07:23:38;4.07;;;1.73;;
2930;SDS011;1475;51.454;7.150;2022-09-09T07:26:10;5.40;;;1.92;;
2930;SDS011;1475;51.454;7.150;2022-09-09T07:28:38;6.05;;;2.38;;
2930;SDS011;1475;51.454;7.150;2022-09-09T07:31:06;4.25;;;1.60;;
2930;SDS011;1475;51.454;7.150;2022-09-09T07:33:38;6.63;;;2.10;;
2930;SDS011;1475;51.454;7.150;2022-09-09T07:36:06;2.92;;;1.80;;
2930;SDS011;1475;51.454;7.150;2022-09-09T07:38:39;4.25;;;1.90;;
2930;SDS011;1475;51.454;7.150;2022-09-09T07:41:09;3.47;;;1.83;;
2930;SDS011;1475;51.454;7.150;2022-09-09T07:43:37;5.97;;;1.80;;
2930;SDS011;1475;51.454;7.150;2022-09-09T07:46:05;8.02;;;2.30;;
2930;SDS011;1475;51.454;7.150;2022-09-09T07:48:32;8.18;;;1.88;;
2930;SDS011;1475;51.454;7.150;2022-09-09T07:51:03;3.95;;;2.00;;
2930;SDS011;1475;51.454;7.150;2022-09-09T07:53:35;6.40;;;2.05;;
2930;SDS011;1475;51.454;7.150;2022-09-09T07:56:05;5.15;;;1.83;;
2930;SDS011;1475;51.454;7.150;2022-09-09T07:58:34;4.55;;;2.00;;
2930;SDS011;1475;51.454;7.150;2022-09-09T08:01:05;4.63;;;3.47;;
2930;SDS011;1475;51.454;7.150;2022-09-09T08:03:34;5.20;;;1.80;;
2930;SDS011;1475;51.454;7.150;2022-09-09T08:06:01;3.05;;;1.67;;
2930;SDS011;1475;51.454;7.150;2022-09-09T08:08:29;4.75;;;2.28;;
2930;SDS011;1475;51.454;7.150;2022-09-09T08:11:01;3.83;;;2.00;;
2930;SDS011;1475;51.454;7.150;2022-09-09T08:13:31;4.40;;;1.30;;
2930;SDS011;1475;51.454;7.150;2022-09-09T08:16:05;7.10;;;2.58;;
2930;SDS011;1475;51.454;7.150;2022-09-09T08:18:33;7.35;;;1.90;;
2930;SDS011;1475;51.454;7.150;2022-09-09T08:21:07;5.13;;;2.45;;
2930;SDS011;1475;51.454;7.150;2022-09-09T08:23:36;5.88;;;1.60;;
2930;SDS011;1475;51.454;7.150;2022-09-09T08:26:04;4.90;;;1.75;;
2930;SDS011;1475;51.454;7.150;2022-09-09T08:28:33;5.00;;;1.90;;
2930;SDS011;1475;51.454;7.150;2022-09-09T08:31:10;5.18;;;2.05;;
2930;SDS011;1475;51.454;7.150;2022-09-09T08:33:39;5.38;;;1.95;;
2930;SDS011;1475;51.454;7.150;2022-09-09T08:36:06;5.70;;;2.15;;
2930;SDS011;1475;51.454;7.150;2022-09-09T08:38:35;3.22;;;1.60;;
2930;SDS011;1475;51.454;7.150;2022-09-09T08:44:04;4.72;;;1.80;;
2930;SDS011;1475;51.454;7.150;2022-09-09T08:46:38;5.60;;;1.80;;
2930;SDS011;1475;51.454;7.150;2022-09-09T08:49:24;5.10;;;2.20;;
2930;SDS011;1475;51.454;7.150;2022-09-09T08:52:06;4.63;;;2.28;;
2930;SDS011;1475;51.454;7.150;2022-09-09T08:54:38;3.72;;;1.77;;
2930;SDS011;1475;51.454;7.150;2022-09-09T08:57:07;4.07;;;2.58;;
2930;SDS011;1475;51.454;7.150;2022-09-09T08:59:41;7.80;;;2.35;;
2930;SDS011;1475;51.454;7.150;2022-09-09T09:02:08;13.15;;;3.28;;
2930;SDS011;1475;51.454;7.150;2022-09-09T09:04:46;5.90;;;2.28;;
2930;SDS011;1475;51.454;7.150;2022-09-09T09:07:24;6.80;;;2.50;;
2930;SDS011;1475;51.454;7.150;2022-09-09T09:10:01;5.35;;;2.67;;
2930;SDS011;1475;51.454;7.150;2022-09-09T09:12:35;7.25;;;2.75;;
2930;SDS011;1475;51.454;7.150;2022-09-09T09:15:09;3.25;;;1.92;;
2930;SDS011;1475;51.454;7.150;2022-09-09T09:17:43;4.13;;;1.98;;
2930;SDS011;1475;51.454;7.150;2022-09-09T09:20:11;7.03;;;3.00;;
2930;SDS011;1475;51.454;7.150;2022-09-09T09:22:41;4.97;;;1.70;;
2930;SDS011;1475;51.454;7.150;2022-09-09T09:25:15;7.35;;;2.58;;
2930;SDS011;1475;51.454;7.150;2022-09-09T09:27:48;4.85;;;1.65;;
2930;SDS011;1475;51.454;7.150;2022-09-09T09:30:22;6.18;;;2.40;;
2930;SDS011;1475;51.454;7.150;2022-09-09T09:32:53;3.60;;;1.95;;
2930;SDS011;1475;51.454;7.150;2022-09-09T09:35:24;3.25;;;1.73;;
2930;SDS011;1475;51.454;7.150;2022-09-09T09:37:51;5.13;;;1.48;;
2930;SDS011;1475;51.454;7.150;2022-09-09T09:40:20;4.20;;;1.70;;
2930;SDS011;1475;51.454;7.150;2022-09-09T09:42:48;4.55;;;1.70;;
2930;SDS011;1475;51.454;7.150;2022-09-09T09:45:20;4.30;;;1.67;;
2930;SDS011;1475;51.454;7.150;2022-09-09T09:48:00;4.53;;;1.80;;
2930;SDS011;1475;51.454;7.150;2022-09-09T09:50:28;4.82;;;2.05;;
2930;SDS011;1475;51.454;7.150;2022-09-09T09:52:56;3.90;;;2.10;;
2930;SDS011;1475;51.454;7.150;2022-09-09T09:55:25;7.60;;;1.88;;
2930;SDS011;1475;51.454;7.150;2022-09-09T09:57:55;3.35;;;1.63;;
2930;SDS011;1475;51.454;7.150;2022-09-09T10:00:29;7.05;;;1.80;;
2930;SDS011;1475;51.454;7.150;2022-09-09T10:02:56;5.47;;;1.95;;
2930;SDS011;1475;51.454;7.150;2022-09-09T10:05:24;2.72;;;1.40;;
2930;SDS011;1475;51.454;7.150;2022-09-09T10:08:02;5.63;;;1.88;;
2930;SDS011;1475;51.454;7.150;2022-09-09T10:10:34;5.45;;;2.53;;
2930;SDS011;1475;51.454;7.150;2022-09-09T10:13:15;3.13;;;1.45;;
2930;SDS011;1475;51.454;7.150;2022-09-09T10:15:52;5.18;;;1.80;;
2930;SDS011;1475;51.454;7.150;2022-09-09T10:18:36;5.55;;;1.70;;
2930;SDS011;1475;51.454;7.150;2022-09-09T10:21:13;3.40;;;1.50;;
2930;SDS011;1475;51.454;7.150;2022-09-09T10:23:56;5.63;;;1.42;;
2930;SDS011;1475;51.454;7.150;2022-09-09T10:26:42;2.70;;;1.85;;
2930;SDS011;1475;51.454;7.150;2022-09-09T10:29:25;6.53;;;1.70;;
2930;SDS011;1475;51.454;7.150;2022-09-09T10:32:09;5.85;;;1.65;;
2930;SDS011;1475;51.454;7.150;2022-09-09T10:34:55;3.35;;;1.20;;
2930;SDS011;1475;51.454;7.150;2022-09-09T10:37:30;5.30;;;1.88;;
2930;SDS011;1475;51.454;7.150;2022-09-09T10:40:16;5.63;;;1.90;;
2930;SDS011;1475;51.454;7.150;2022-09-09T10:42:52;5.63;;;2.30;;
2930;SDS011;1475;51.454;7.150;2022-09-09T10:45:26;2.72;;;1.15;;
2930;SDS011;1475;51.454;7.150;2022-09-09T10:48:04;3.28;;;1.70;;
2930;SDS011;1475;51.454;7.150;2022-09-09T10:50:51;3.92;;;1.35;;
2930;SDS011;1475;51.454;7.150;2022-09-09T10:53:24;4.55;;;1.80;;
2930;SDS011;1475;51.454;7.150;2022-09-09T10:56:01;3.63;;;1.55;;
2930;SDS011;1475;51.454;7.150;2022-09-09T10:58:35;5.07;;;2.63;;
2930;SDS011;1475;51.454;7.150;2022-09-09T11:01:09;4.47;;;1.80;;
2930;SDS011;1475;51.454;7.150;2022-09-09T11:03:43;3.72;;;1.38;;
2930;SDS011;1475;51.454;7.150;2022-09-09T11:06:14;3.22;;;0.93;;
2930;SDS011;1475;51.454;7.150;2022-09-09T11:08:43;2.22;;;0.98;;
2930;SDS011;1475;51.454;7.150;2022-09-09T11:11:12;4.43;;;1.40;;
2930;SDS011;1475;51.454;7.150;2022-09-09T11:13:44;6.47;;;2.05;;
2930;SDS011;1475;51.454;7.150;2022-09-09T11:16:19;3.72;;;1.80;;
2930;SDS011;1475;51.454;7.150;2022-09-09T11:18:52;3.28;;;1.52;;
2930;SDS011;1475;51.454;7.150;2022-09-09T11:21:23;2.00;;;0.90;;
2930;SDS011;1475;51.454;7.150;2022-09-09T11:23:55;4.82;;;1.25;;
2930;SDS011;1475;51.454;7.150;2022-09-09T11:26:29;4.13;;;1.42;;
2930;SDS011;1475;51.454;7.150;2022-09-09T11:29:05;3.20;;;1.20;;
2930;SDS011;1475;51.454;7.150;2022-09-09T11:31:46;5.13;;;1.33;;
2930;SDS011;1475;51.454;7.150;2022-09-09T11:34:33;4.90;;;3.58;;
2930;SDS011;1475;51.454;7.150;2022-09-09T11:37:15;2.15;;;1.10;;
2930;SDS011;1475;51.454;7.150;2022-09-09T11:39:58;2.45;;;1.00;;
2930;SDS011;1475;51.454;7.150;2022-09-09T11:42:35;2.08;;;1.27;;
2930;SDS011;1475;51.454;7.150;2022-09-09T11:45:09;2.78;;;0.93;;
2930;SDS011;1475;51.454;7.150;2022-09-09T11:47:37;2.35;;;1.20;;
2930;SDS011;1475;51.454;7.150;2022-09-09T11:50:10;2.92;;;1.45;;
2930;SDS011;1475;51.454;7.150;2022-09-09T11:53:03;4.75;;;0.90;;
2930;SDS011;1475;51.454;7.150;2022-09-09T11:55:47;2.30;;;1.30;;
2930;SDS011;1475;51.454;7.150;2022-09-09T11:58:25;2.42;;;1.20;;
2930;SDS011;1475;51.454;7.150;2022-09-09T12:00:54;4.13;;;1.60;;
2930;SDS011;1475;51.454;7.150;2022-09-09T12:03:38;2.35;;;1.40;;
2930;SDS011;1475;51.454;7.150;2022-09-09T12:06:13;4.07;;;1.48;;
2930;SDS011;1475;51.454;7.150;2022-09-09T12:08:43;4.65;;;1.65;;
2930;SDS011;1475;51.454;7.150;2022-09-09T12:11:12;4.10;;;1.42;;
2930;SDS011;1475;51.454;7.150;2022-09-09T12:13:52;2.97;;;1.33;;
2930;SDS011;1475;51.454;7.150;2022-09-09T12:16:27;7.15;;;1.85;;
2930;SDS011;1475;51.454;7.150;2022-09-09T12:19:03;4.32;;;1.40;;
2930;SDS011;1475;51.454;7.150;2022-09-09T12:21:35;1.90;;;0.93;;
2930;SDS011;1475;51.454;7.150;2022-09-09T12:24:11;2.05;;;1.10;;
2930;SDS011;1475;51.454;7.150;2022-09-09T12:26:43;3.83;;;1.30;;
2930;SDS011;1475;51.454;7.150;2022-09-09T12:29:22;3.13;;;1.38;;
2930;SDS011;1475;51.454;7.150;2022-09-09T12:31:55;5.90;;;1.40;;
2930;SDS011;1475;51.454;7.150;2022-09-09T12:34:32;2.10;;;1.13;;
2930;SDS011;1475;51.454;7.150;2022-09-09T12:37:06;2.38;;;1.10;;
2930;SDS011;1475;51.454;7.150;2022-09-09T12:39:41;2.33;;;0.90;;
2930;SDS011;1475;51.454;7.150;2022-09-09T12:42:18;3.70;;;1.75;;
2930;SDS011;1475;51.454;7.150;2022-09-09T12:44:52;2.20;;;1.00;;
2930;SDS011;1475;51.454;7.150;2022-09-09T12:47:20;4.10;;;1.30;;
2930;SDS011;1475;51.454;7.150;2022-09-09T12:49:52;5.15;;;1.50;;
2930;SDS011;1475;51.454;7.150;2022-09-09T12:52:25;3.45;;;1.80;;
2930;SDS011;1475;51.454;7.150;2022-09-09T12:54:55;2.80;;;1.10;;
2930;SDS011;1475;51.454;7.150;2022-09-09T12:57:23;3.83;;;1.50;;
2930;SDS011;1475;51.454;7.150;2022-09-09T12:59:51;5.43;;;1.40;;
2930;SDS011;1475;51.454;7.150;2022-09-09T13:02:21;4.07;;;1.47;;
2930;SDS011;1475;51.454;7.150;2022-09-09T13:04:49;2.40;;;1.27;;
2930;SDS011;1475;51.454;7.150;2022-09-09T13:07:16;3.60;;;1.10;;
2930;SDS011;1475;51.454;7.150;2022-09-09T13:09:46;3.77;;;1.10;;
2930;SDS011;1475;51.454;7.150;2022-09-09T13:12:15;3.20;;;1.43;;
2930;SDS011;1475;51.454;7.150;2022-09-09T13:14:45;2.80;;;1.40;;
2930;SDS011;1475;51.454;7.150;2022-09-09T13:17:18;2.70;;;1.17;;
2930;SDS011;1475;51.454;7.150;2022-09-09T13:19:47;2.63;;;0.90;;
2930;SDS011;1475;51.454;7.150;2022-09-09T13:22:20;2.63;;;1.27;;
2930;SDS011;1475;51.454;7.150;2022-09-09T13:24:59;4.00;;;1.30;;
2930;SDS011;1475;51.454;7.150;2022-09-09T13:27:29;3.37;;;1.43;;
2930;SDS011;1475;51.454;7.150;2022-09-09T13:29:58;2.43;;;1.23;;
2930;SDS011;1475;51.454;7.150;2022-09-09T13:32:26;3.20;;;1.43;;
2930;SDS011;1475;51.454;7.150;2022-09-09T13:34:54;3.70;;;1.48;;
2930;SDS011;1475;51.454;7.150;2022-09-09T13:37:23;2.47;;;1.45;;
2930;SDS011;1475;51.454;7.150;2022-09-09T13:39:54;3.78;;;1.20;;
2930;SDS011;1475;51.454;7.150;2022-09-09T13:42:23;6.72;;;1.33;;
2930;SDS011;1475;51.454;7.150;2022-09-09T13:44:53;4.45;;;2.22;;
2930;SDS011;1475;51.454;7.150;2022-09-09T13:47:21;6.00;;;2.25;;
2930;SDS011;1475;51.454;7.150;2022-09-09T13:49:56;6.03;;;2.75;;
2930;SDS011;1475;51.454;7.150;2022-09-09T13:52:23;11.90;;;3.08;;
2930;SDS011;1475;51.454;7.150;2022-09-09T13:54:51;6.55;;;2.92;;
2930;SDS011;1475;51.454;7.150;2022-09-09T13:57:19;6.18;;;2.45;;
2930;SDS011;1475;51.454;7.150;2022-09-09T13:59:49;6.47;;;2.65;;
2930;SDS011;1475;51.454;7.150;2022-09-09T14:02:16;8.13;;;2.80;;
2930;SDS011;1475;51.454;7.150;2022-09-09T14:04:43;10.40;;;3.88;;
2930;SDS011;1475;51.454;7.150;2022-09-09T14:07:11;3.83;;;2.50;;
2930;SDS011;1475;51.454;7.150;2022-09-09T14:09:39;4.85;;;2.80;;
2930;SDS011;1475;51.454;7.150;2022-09-09T14:12:08;8.10;;;3.70;;
2930;SDS011;1475;51.454;7.150;2022-09-09T14:14:35;4.68;;;2.80;;
2930;SDS011;1475;51.454;7.150;2022-09-09T14:17:03;4.85;;;2.50;;
2930;SDS011;1475;51.454;7.150;2022-09-09T14:19:31;5.78;;;3.72;;
2930;SDS011;1475;51.454;7.150;2022-09-09T14:21:58;4.47;;;2.53;;
2930;SDS011;1475;51.454;7.150;2022-09-09T14:24:24;6.88;;;2.80;;
2930;SDS011;1475;51.454;7.150;2022-09-09T14:26:51;5.55;;;2.80;;
2930;SDS011;1475;51.454;7.150;2022-09-09T14:29:18;4.30;;;2.10;;
2930;SDS011;1475;51.454;7.150;2022-09-09T14:31:47;9.57;;;1.83;;
2930;SDS011;1475;51.454;7.150;2022-09-09T14:34:15;4.35;;;1.92;;
2930;SDS011;1475;51.454;7.150;2022-09-09T14:36:42;3.45;;;1.27;;
2930;SDS011;1475;51.454;7.150;2022-09-09T14:39:09;5.20;;;1.80;;
2930;SDS011;1475;51.454;7.150;2022-09-09T14:41:36;2.80;;;1.75;;
2930;SDS011;1475;51.454;7.150;2022-09-09T14:44:03;3.80;;;1.35;;
2930;SDS011;1475;51.454;7.150;2022-09-09T14:46:30;5.82;;;1.77;;
2930;SDS011;1475;51.454;7.150;2022-09-09T14:48:58;4.82;;;1.70;;
2930;SDS011;1475;51.454;7.150;2022-09-09T14:51:26;3.97;;;1.73;;
2930;SDS011;1475;51.454;7.150;2022-09-09T14:53:53;3.55;;;1.38;;
2930;SDS011;1475;51.454;7.150;2022-09-09T14:56:23;3.73;;;1.70;;
2930;SDS011;1475;51.454;7.150;2022-09-09T14:58:52;2.80;;;1.10;;
2930;SDS011;1475;51.454;7.150;2022-09-09T15:01:20;2.83;;;1.43;;
2930;SDS011;1475;51.454;7.150;2022-09-09T15:03:48;2.03;;;1.33;;
2930;SDS011;1475;51.454;7.150;2022-09-09T15:06:17;3.40;;;1.20;;
2930;SDS011;1475;51.454;7.150;2022-09-09T15:08:45;3.72;;;1.60;;
2930;SDS011;1475;51.454;7.150;2022-09-09T15:11:13;10.63;;;2.85;;
2930;SDS011;1475;51.454;7.150;2022-09-09T15:13:41;3.83;;;1.70;;
2930;SDS011;1475;51.454;7.150;2022-09-09T15:16:09;6.65;;;2.60;;
2930;SDS011;1475;51.454;7.150;2022-09-09T15:18:37;2.00;;;1.30;;
2930;SDS011;1475;51.454;7.150;2022-09-09T15:21:05;3.00;;;0.90;;
2930;SDS011;1475;51.454;7.150;2022-09-09T15:23:32;3.17;;;0.85;;
2930;SDS011;1475;51.454;7.150;2022-09-09T15:26:02;2.38;;;0.90;;
2930;SDS011;1475;51.454;7.150;2022-09-09T15:28:29;2.55;;;1.10;;
2930;SDS011;1475;51.454;7.150;2022-09-09T15:31:04;2.17;;;1.00;;
2930;SDS011;1475;51.454;7.150;2022-09-09T15:33:33;3.22;;;1.67;;
2930;SDS011;1475;51.454;7.150;2022-09-09T15:36:11;2.92;;;1.50;;
2930;SDS011;1475;51.454;7.150;2022-09-09T15:38:39;2.00;;;0.90;;
2930;SDS011;1475;51.454;7.150;2022-09-09T15:41:07;2.78;;;1.10;;